Time;durP1;ratioP1;P1;durP2;ratioP2;P2;SDS_P1;SDS_P2;PMS_P1;PMS_P2;Temp;Humidity;BMP_temperature;BMP_pressure;BME280_temperature;BME280_humidity;BME280_pressure;Samples;Min_cycle;Max_cycle;Signal;HPM_P1;HPM_P2
2022/09/23 00:02:02;;;;;;;10.80;7.10;;;;;;;8.14;76.29;100543.74;106280;1271;108917;-72
2022/09/23 00:04:34;;;;;;;9.20;6.70;;;;;;;8.08;76.36;100540.05;106184;1271;138272;-72
2022/09/23 00:07:06;;;;;;;10.40;7.20;;;;;;;8.04;76.41;100538.55;106378;1269;96622;-72
2022/09/23 00:09:39;;;;;;;10.30;7.10;;;;;;;7.99;76.51;100535.54;106331;1269;137842;-72
2022/09/23 00:12:11;;;;;;;9.70;7.10;;;;;;;7.95;76.59;100535.95;106400;1271;107980;-72
2022/09/23 00:14:43;;;;;;;10.50;6.30;;;;;;;7.92;76.73;100537.92;106125;1271;138116;-72
2022/09/23 00:17:15;;;;;;;11.40;7.20;;;;;;;7.88;76.76;100536.05;106296;1271;96618;-72
2022/09/23 00:19:48;;;;;;;10.40;7.20;;;;;;;7.85;76.88;100537.30;106358;1271;96574;-72
2022/09/23 00:22:20;;;;;;;9.90;6.60;;;;;;;7.82;76.87;100539.42;106258;1271;137793;-74
2022/09/23 00:24:52;;;;;;;8.90;7.00;;;;;;;7.79;77.15;100535.85;106292;1271;107731;-72
2022/09/23 00:27:25;;;;;;;9.50;6.70;;;;;;;7.77;77.08;100537.80;106100;1271;137880;-72
2022/09/23 00:29:57;;;;;;;9.00;6.70;;;;;;;7.75;77.15;100535.77;106378;1270;96459;-72
2022/09/23 00:32:29;;;;;;;12.00;6.80;;;;;;;7.73;77.32;100535.27;106232;1271;139135;-72
2022/09/23 00:35:02;;;;;;;9.10;6.80;;;;;;;7.70;77.30;100533.91;106378;1271;111119;-72
2022/09/23 00:37:36;;;;;;;9.80;6.70;;;;;;;7.68;77.41;100535.16;106403;1271;108931;-72
2022/09/23 00:40:12;;;;;;;12.90;7.10;;;;;;;7.65;77.47;100535.38;106209;1271;137836;-72
2022/09/23 00:42:50;;;;;;;14.00;7.50;;;;;;;7.62;77.51;100532.84;106374;1271;96555;-72
2022/09/23 00:45:23;;;;;;;9.70;6.90;;;;;;;7.60;77.61;100535.30;106225;1271;138421;-72
2022/09/23 00:48:00;;;;;;;9.50;7.20;;;;;;;7.58;77.92;100536.20;106364;1271;110605;-72
2022/09/23 00:50:33;;;;;;;;;;;;;;;7.58;77.98;100536.36;106248;1271;137978;-72
2022/09/23 00:53:10;;;;;;;10.20;7.20;;;;;;;7.55;77.96;100534.52;106426;1271;108720;-73
2022/09/23 00:55:46;;;;;;;9.00;7.30;;;;;;;7.52;78.11;100533.49;106383;1270;96538;-74
2022/09/23 00:58:23;;;;;;;11.00;7.50;;;;;;;7.50;77.96;100537.33;106233;1270;139006;-73
2022/09/23 01:00:58;;;;;;;9.80;7.10;;;;;;;7.49;78.21;100538.74;106303;1270;111098;-72
2022/09/23 01:03:30;;;;;;;11.60;7.60;;;;;;;7.48;78.28;100538.23;106183;1270;138110;-73
2022/09/23 01:06:03;;;;;;;10.00;7.80;;;;;;;7.49;78.47;100537.36;106314;1270;107848;-73
2022/09/23 01:08:36;;;;;;;10.80;8.10;;;;;;;7.50;78.58;100534.57;106210;1271;138245;-73
2022/09/23 01:11:29;;;;;;;10.10;7.70;;;;;;;7.53;78.80;100533.99;106363;1271;97063;-72
2022/09/23 01:14:25;;;;;;;11.50;7.70;;;;;;;7.58;78.98;100529.80;106381;1271;111207;-72
2022/09/23 01:17:03;;;;;;;10.50;8.00;;;;;;;7.62;78.97;100529.89;107880;1270;105920;-74
2022/09/23 01:20:02;;;;;;;10.20;7.60;;;;;;;7.64;78.96;100524.16;107857;1270;109042;-73
2022/09/23 01:22:41;;;;;;;10.00;7.80;;;;;;;7.65;79.02;100528.45;106837;1270;137733;-73
2022/09/23 01:25:30;;;;;;;11.10;8.00;;;;;;;7.68;79.16;100527.02;106653;1270;95189;-73
2022/09/23 01:28:25;;;;;;;9.80;7.40;;;;;;;7.71;79.22;100519.87;106103;1271;166917;-72
2022/09/23 01:31:04;;;;;;;10.80;7.80;;;;;;;7.75;79.23;100524.85;106365;1270;108861;-73
2022/09/23 01:33:47;;;;;;;13.90;8.20;;;;;;;7.78;79.30;100520.80;106150;1270;138781;-73
2022/09/23 01:36:23;;;;;;;11.50;8.70;;;;;;;7.82;79.38;100521.09;106217;1270;96573;-72
2022/09/23 01:39:01;;;;;;;11.70;8.00;;;;;;;7.85;79.45;100523.28;106267;1271;138628;-73
2022/09/23 01:41:54;;;;;;;15.10;8.30;;;;;;;7.88;79.31;100522.02;106242;1270;111248;-73
2022/09/23 01:44:35;;;;;;;11.10;7.90;;;;;;;7.90;79.17;100520.45;106223;1270;138194;-73
2022/09/23 01:47:13;;;;;;;12.50;8.00;;;;;;;7.93;79.39;100518.16;106356;1271;109079;-73
2022/09/23 01:49:50;;;;;;;10.70;9.00;;;;;;;7.96;79.42;100515.16;106356;1270;96466;-72
2022/09/23 01:52:27;;;;;;;10.30;8.40;;;;;;;7.97;79.40;100512.88;106211;1270;137884;-73
2022/09/23 01:55:03;;;;;;;11.60;8.10;;;;;;;8.00;79.31;100515.94;106398;1270;109841;-73
2022/09/23 01:57:40;;;;;;;13.30;8.50;;;;;;;8.01;79.22;100516.09;106222;1271;137985;-73
2022/09/23 02:00:16;;;;;;;10.80;7.90;;;;;;;8.02;79.21;100511.39;106265;1270;108800;-72
2022/09/23 02:02:52;;;;;;;12.60;8.30;;;;;;;8.02;79.15;100510.54;106273;1270;138206;-73
2022/09/23 02:05:29;;;;;;;10.50;8.10;;;;;;;8.03;79.10;100512.24;106756;1271;96497;-73
2022/09/23 02:08:03;;;;;;;;;;;;;;;8.04;79.10;100511.70;106450;1271;111348;-72
2022/09/23 02:10:40;;;;;;;10.00;7.70;;;;;;;8.03;79.08;100511.38;106313;1270;124587;-73
2022/09/23 02:13:19;;;;;;;11.40;8.90;;;;;;;8.03;79.12;100510.34;106158;1270;109550;-73
2022/09/23 02:15:55;;;;;;;11.90;8.50;;;;;;;8.02;78.99;100508.10;106201;1270;138426;-72
2022/09/23 02:18:31;;;;;;;10.80;7.80;;;;;;;8.02;79.02;100510.02;106237;1270;96448;-71
2022/09/23 02:21:08;;;;;;;11.70;8.80;;;;;;;7.99;78.93;100513.36;106198;1271;138042;-71
2022/09/23 02:23:45;;;;;;;13.80;8.80;;;;;;;7.97;78.95;100514.08;106476;1270;107752;-71
2022/09/23 02:26:22;;;;;;;13.70;8.80;;;;;;;7.94;78.93;100509.98;106228;1270;138104;-71
2022/09/23 02:29:01;;;;;;;;;;;;;;;7.93;79.01;100511.06;107895;1269;94588;-72
2022/09/23 02:31:39;;;;;;;10.70;8.60;;;;;;;7.89;78.94;100514.90;107113;1270;94810;-72
2022/09/23 02:34:20;;;;;;;12.90;9.00;;;;;;;7.87;79.05;100517.87;106352;1270;137877;-72
2022/09/23 02:37:05;;;;;;;11.60;8.90;;;;;;;7.84;79.08;100512.04;106373;1270;107536;-72
2022/09/23 02:39:48;;;;;;;11.90;8.90;;;;;;;7.83;79.07;100512.58;106261;1270;138058;-73
2022/09/23 02:42:24;;;;;;;12.40;9.00;;;;;;;7.81;79.13;100507.24;106340;1270;96577;-72
2022/09/23 02:44:55;;;;;;;;;;;;;;;7.78;78.96;100506.80;106228;1270;138458;-73
2022/09/23 02:47:32;;;;;;;11.70;8.70;;;;;;;7.74;79.06;100513.95;107768;1270;109703;-73
2022/09/23 02:50:05;;;;;;;12.80;8.80;;;;;;;7.70;79.16;100515.90;107734;1270;108803;-73
2022/09/23 02:52:37;;;;;;;12.60;8.80;;;;;;;7.69;79.18;100515.74;106466;1270;108740;-73
2022/09/23 02:55:14;;;;;;;12.80;9.00;;;;;;;7.70;79.32;100514.70;106274;1271;96602;-73
2022/09/23 02:57:45;;;;;;;;;;;;;;;7.70;79.29;100515.04;107764;1269;138949;-74
2022/09/23 03:00:18;;;;;;;11.30;8.70;;;;;;;7.69;79.35;100512.83;106536;1270;111052;-73
2022/09/23 03:03:16;;;;;;;10.80;8.90;;;;;;;7.68;79.26;100513.87;106244;1270;138347;-72
2022/09/23 03:05:54;;;;;;;10.70;8.60;;;;;;;7.67;79.32;100513.89;106318;1270;108739;-72
2022/09/23 03:08:41;;;;;;;13.00;8.10;;;;;;;7.66;79.27;100517.54;106240;1270;138269;-72
2022/09/23 03:11:16;;;;;;;12.60;8.50;;;;;;;7.65;79.47;100518.23;106364;1269;96551;-72
2022/09/23 03:14:05;;;;;;;11.80;8.60;;;;;;;7.66;79.70;100520.14;106254;1270;111225;-72
2022/09/23 03:16:45;;;;;;;13.70;8.90;;;;;;;7.68;79.79;100522.69;106283;1270;108832;-72
2022/09/23 03:19:27;;;;;;;14.40;9.20;;;;;;;7.70;79.97;100520.40;106245;1270;107746;-72
2022/09/23 03:22:05;;;;;;;10.70;8.50;;;;;;;7.71;79.96;100519.00;106145;1270;137959;-72
2022/09/23 03:24:41;;;;;;;11.30;8.80;;;;;;;7.70;79.80;100512.96;106300;1270;96519;-72
2022/09/23 03:27:18;;;;;;;11.30;8.70;;;;;;;7.68;79.87;100514.05;106197;1270;137841;-71
2022/09/23 03:29:53;;;;;;;11.70;9.20;;;;;;;7.68;79.98;100512.66;106377;1270;108822;-72
2022/09/23 03:32:28;;;;;;;14.70;9.00;;;;;;;7.67;79.95;100513.36;107745;1269;138975;-72
2022/09/23 03:35:03;;;;;;;12.40;8.60;;;;;;;7.68;80.17;100510.39;107866;1270;94445;-72
2022/09/23 03:37:40;;;;;;;10.90;8.50;;;;;;;7.69;80.13;100507.96;107895;1269;94709;-72
2022/09/23 03:40:18;;;;;;;12.30;8.70;;;;;;;7.68;79.94;100507.98;107805;1270;138258;-72
2022/09/23 03:42:52;;;;;;;12.80;8.90;;;;;;;7.67;79.96;100510.59;106990;1270;108862;-71
2022/09/23 03:45:34;;;;;;;13.70;8.80;;;;;;;7.67;80.02;100506.27;106060;1270;139137;-72
2022/09/23 03:48:06;;;;;;;11.60;8.90;;;;;;;7.67;80.12;100503.49;106349;1269;96562;-72
2022/09/23 03:50:38;;;;;;;9.70;8.10;;;;;;;7.66;80.14;100499.89;106256;1271;137126;-71
2022/09/23 03:53:13;;;;;;;14.30;9.30;;;;;;;7.64;80.02;100496.98;106426;1271;110859;-71
2022/09/23 03:55:46;;;;;;;13.30;9.60;;;;;;;7.63;80.11;100498.04;106432;1270;107755;-72
2022/09/23 03:58:18;;;;;;;11.40;9.00;;;;;;;7.63;79.99;100504.45;106321;1270;138155;-72
2022/09/23 04:00:53;;;;;;;12.60;9.10;;;;;;;7.60;80.15;100503.11;106259;1270;96504;-72
2022/09/23 04:03:26;;;;;;;11.80;9.20;;;;;;;7.58;80.13;100503.84;106326;1270;139914;-73
2022/09/23 04:05:59;;;;;;;10.50;8.70;;;;;;;7.57;80.09;100511.98;106394;1270;111078;-73
2022/09/23 04:08:31;;;;;;;11.60;8.60;;;;;;;7.54;80.10;100508.55;106340;1270;139560;-72
2022/09/23 04:11:04;;;;;;;10.00;8.50;;;;;;;7.51;80.11;100508.94;106363;1270;106747;-72
2022/09/23 04:13:36;;;;;;;13.00;9.50;;;;;;;7.50;80.07;100510.17;106328;1270;96453;-72
2022/09/23 04:16:08;;;;;;;13.10;9.10;;;;;;;7.48;79.99;100507.95;106303;1270;137779;-72
2022/09/23 04:18:41;;;;;;;15.40;10.20;;;;;;;7.45;79.92;100510.95;106393;1271;110539;-72
2022/09/23 04:21:13;;;;;;;14.20;10.20;;;;;;;7.41;79.76;100512.06;106215;1270;138149;-72
2022/09/23 04:23:45;;;;;;;14.00;9.00;;;;;;;7.36;79.75;100510.56;106229;1271;108828;-73
2022/09/23 04:26:18;;;;;;;15.20;10.10;;;;;;;7.33;79.81;100513.55;106270;1270;138404;-72
2022/09/23 04:28:50;;;;;;;12.90;9.80;;;;;;;7.29;79.81;100514.13;106447;1270;96485;-72
2022/09/23 04:31:22;;;;;;;13.90;10.00;;;;;;;7.25;79.62;100517.65;106258;1270;110259;-73
2022/09/23 04:33:55;;;;;;;13.10;9.70;;;;;;;7.22;79.89;100516.48;106276;1270;138691;-72
2022/09/23 04:36:29;;;;;;;16.10;10.10;;;;;;;7.18;79.58;100521.89;106267;1269;109085;-72
2022/09/23 04:39:02;;;;;;;19.10;10.60;;;;;;;7.13;79.55;100524.55;106343;1269;138396;-72
2022/09/23 04:41:35;;;;;;;18.00;9.70;;;;;;;7.07;79.68;100520.84;106360;1271;96474;-73
2022/09/23 04:44:07;;;;;;;16.60;10.70;;;;;;;7.02;79.74;100520.39;106443;1270;111090;-74
2022/09/23 04:46:40;;;;;;;16.10;10.30;;;;;;;6.98;79.86;100518.35;106241;1270;109025;-73
2022/09/23 04:49:12;;;;;;;16.70;10.10;;;;;;;6.96;79.71;100515.44;106348;1270;108815;-73
2022/09/23 04:51:45;;;;;;;14.80;9.70;;;;;;;6.92;79.69;100514.46;106242;1270;138855;-73
2022/09/23 04:54:17;;;;;;;18.80;9.90;;;;;;;6.89;79.82;100510.89;106317;1270;97020;-74
2022/09/23 04:56:49;;;;;;;14.00;9.60;;;;;;;6.87;79.80;100510.91;106115;1270;140163;-73
2022/09/23 04:59:22;;;;;;;17.90;9.90;;;;;;;6.82;79.71;100510.97;106366;1269;107604;-74
2022/09/23 05:01:54;;;;;;;16.70;10.90;;;;;;;6.80;79.77;100512.02;106240;1270;109051;-74
2022/09/23 05:04:26;;;;;;;21.20;11.30;;;;;;;6.78;79.95;100514.11;106271;1269;138347;-73
2022/09/23 05:06:59;;;;;;;41.50;10.70;;;;;;;6.79;80.02;100512.03;106271;1270;96455;-73
2022/09/23 05:09:34;;;;;;;16.70;9.40;;;;;;;6.80;79.76;100511.49;106205;1270;138240;-74
2022/09/23 05:12:07;;;;;;;18.10;9.30;;;;;;;6.80;79.72;100510.98;106284;1270;108370;-74
2022/09/23 05:14:39;;;;;;;19.70;9.10;;;;;;;6.81;80.07;100513.04;106295;1270;139857;-74
2022/09/23 05:17:11;;;;;;;34.60;9.00;;;;;;;6.84;79.87;100511.29;106395;1271;96564;-74
2022/09/23 05:19:43;;;;;;;26.20;9.00;;;;;;;6.89;80.12;100511.05;106357;1270;96487;-74
2022/09/23 05:22:15;;;;;;;37.70;8.60;;;;;;;6.95;79.94;100509.23;106135;1270;139398;-74
2022/09/23 05:24:47;;;;;;;23.50;10.10;;;;;;;6.99;79.81;100513.15;106389;1270;108955;-74
2022/09/23 05:27:20;;;;;;;22.50;9.20;;;;;;;7.04;79.83;100513.80;106304;1270;138226;-73
2022/09/23 05:29:52;;;;;;;15.40;9.80;;;;;;;7.08;79.68;100511.49;106369;1270;96513;-74
2022/09/23 05:32:25;;;;;;;15.70;9.10;;;;;;;7.13;79.44;100511.41;106262;1270;138118;-74
2022/09/23 05:34:57;;;;;;;13.30;9.30;;;;;;;7.23;79.49;100513.01;107407;1270;110259;-74
2022/09/23 05:37:31;;;;;;;21.20;10.10;;;;;;;7.40;79.48;100513.80;106327;1269;107827;-74
2022/09/23 05:40:04;;;;;;;20.60;10.70;;;;;;;7.58;79.33;100510.23;106293;1271;138461;-74
2022/09/23 05:42:37;;;;;;;14.80;9.30;;;;;;;7.83;79.36;100509.30;106348;1271;97181;-74
2022/09/23 05:45:10;;;;;;;16.20;10.20;;;;;;;8.15;79.13;100510.66;106315;1270;138663;-74
2022/09/23 05:47:42;;;;;;;16.70;9.60;;;;;;;8.55;78.76;100508.89;106367;1270;111174;-74
2022/09/23 05:50:15;;;;;;;15.50;9.40;;;;;;;8.89;78.26;100516.16;106172;1270;138445;-74
2022/09/23 05:52:47;;;;;;;13.90;8.60;;;;;;;9.26;77.44;100517.97;106325;1270;107833;-74
2022/09/23 05:55:19;;;;;;;14.10;9.30;;;;;;;9.36;76.35;100517.75;106397;1271;96562;-74
2022/09/23 05:57:51;;;;;;;13.50;8.80;;;;;;;9.37;75.93;100515.82;106299;1270;139444;-74
2022/09/23 06:00:24;;;;;;;15.50;9.80;;;;;;;9.39;75.72;100519.93;106371;1270;110242;-74
2022/09/23 06:02:57;;;;;;;14.10;10.10;;;;;;;9.45;75.57;100520.48;107754;1269;138565;-72
2022/09/23 06:05:30;;;;;;;16.30;10.20;;;;;;;9.53;75.41;100522.20;107083;1269;108882;-72
2022/09/23 06:08:02;;;;;;;11.90;8.70;;;;;;;9.68;75.11;100522.89;106257;1270;96568;-73
2022/09/23 06:10:38;;;;;;;15.90;9.00;;;;;;;10.00;75.00;100518.61;106300;1269;137928;-73
2022/09/23 06:13:11;;;;;;;9.70;7.90;;;;;;;10.38;74.22;100517.85;106275;1270;110998;-72
2022/09/23 06:15:44;;;;;;;14.10;7.30;;;;;;;10.74;73.96;100519.61;106105;1270;138165;-73
2022/09/23 06:18:17;;;;;;;10.20;7.90;;;;;;;11.14;72.86;100520.17;106358;1270;107801;-72
2022/09/23 06:20:49;;;;;;;9.70;7.50;;;;;;;11.47;72.45;100514.64;106315;1271;138565;-72
2022/09/23 06:23:21;;;;;;;12.60;7.70;;;;;;;11.64;71.88;100518.78;106350;1270;97091;-72
2022/09/23 06:26:01;;;;;;;9.50;7.60;;;;;;;11.77;71.92;100517.67;106237;1270;111137;-73
2022/09/23 06:28:35;;;;;;;9.90;7.90;;;;;;;12.29;71.26;100513.33;106278;1270;138376;-72
2022/09/23 06:31:09;;;;;;;11.10;7.70;;;;;;;12.68;70.26;100517.70;106300;1270;108995;-73
2022/09/23 06:33:49;;;;;;;11.00;7.50;;;;;;;13.05;69.56;100515.06;107777;1270;138685;-73
2022/09/23 06:36:26;;;;;;;11.20;8.20;;;;;;;13.38;68.69;100516.12;106608;1270;96490;-72
2022/09/23 06:39:15;;;;;;;10.60;8.60;;;;;;;13.56;68.00;100515.91;106940;1270;138192;-72
2022/09/23 06:41:47;;;;;;;11.90;8.60;;;;;;;13.77;67.53;100511.57;107891;1269;108902;-72
2022/09/23 06:44:20;;;;;;;9.40;8.40;;;;;;;14.42;67.11;100509.69;107806;1269;138662;-72
2022/09/23 06:46:52;;;;;;;11.40;9.00;;;;;;;15.57;66.28;100505.96;107895;1269;95554;-73
2022/09/23 06:49:25;;;;;;;12.10;9.00;;;;;;;16.41;64.24;100500.85;107908;1268;94729;-72
2022/09/23 06:51:57;;;;;;;14.70;8.30;;;;;;;17.14;63.61;100496.93;106434;1268;137475;-73
2022/09/23 06:54:30;;;;;;;10.70;8.70;;;;;;;17.98;62.43;100493.88;106521;1270;108090;-71
2022/09/23 06:57:02;;;;;;;9.70;8.10;;;;;;;18.86;60.32;100493.52;106340;1268;137961;-72
2022/09/23 06:59:34;;;;;;;10.20;8.50;;;;;;;19.67;58.13;100490.91;106379;1270;96487;-72
2022/09/23 07:02:07;;;;;;;9.10;8.20;;;;;;;20.52;56.67;100490.34;106403;1270;96478;-72
2022/09/23 07:04:40;;;;;;;11.40;9.40;;;;;;;21.22;55.32;100491.19;106303;1270;110341;-72
2022/09/23 07:07:13;;;;;;;11.30;9.00;;;;;;;22.03;54.60;100485.86;106489;1270;108916;-71
2022/09/23 07:09:45;;;;;;;10.20;8.70;;;;;;;22.84;52.79;100491.84;106259;1270;138472;-72
2022/09/23 07:12:17;;;;;;;13.10;9.60;;;;;;;23.23;50.60;100492.64;106250;1270;96484;-72
2022/09/23 07:14:49;;;;;;;12.10;9.30;;;;;;;23.41;49.17;100495.35;106556;1269;138987;-73
2022/09/23 07:17:23;;;;;;;12.10;10.20;;;;;;;23.54;48.67;100493.27;106280;1270;111211;-72
2022/09/23 07:19:55;;;;;;;14.60;10.50;;;;;;;23.92;47.80;100492.96;107843;1270;109223;-73
2022/09/23 07:22:27;;;;;;;13.60;10.60;;;;;;;24.07;46.92;100493.63;107719;1269;139696;-73
2022/09/23 07:24:59;;;;;;;12.20;10.30;;;;;;;24.48;46.78;100491.92;106375;1270;96485;-72
2022/09/23 07:27:32;;;;;;;15.00;10.60;;;;;;;25.13;46.62;100487.21;106213;1269;139310;-73
2022/09/23 07:30:05;;;;;;;11.50;10.30;;;;;;;25.57;44.91;100484.52;106330;1270;111294;-72
2022/09/23 07:32:43;;;;;;;14.20;10.40;;;;;;;25.77;44.28;100481.59;107761;1270;138315;-73
2022/09/23 07:35:20;;;;;;;12.90;9.50;;;;;;;26.04;43.86;100479.29;107720;1270;108996;-73
2022/09/23 07:37:53;;;;;;;17.90;9.30;;;;;;;26.29;42.62;100473.23;107382;1269;96477;-73
2022/09/23 07:40:25;;;;;;;11.10;8.40;;;;;;;26.27;41.95;100471.80;106342;1270;137444;-73
2022/09/23 07:42:58;;;;;;;8.80;7.20;;;;;;;26.52;41.29;100479.80;106201;1270;110901;-74
2022/09/23 07:45:31;;;;;;;7.10;6.30;;;;;;;26.65;40.99;100478.03;106103;1270;137565;-73
2022/09/23 07:48:04;;;;;;;7.70;6.90;;;;;;;26.98;40.94;100476.45;106283;1270;108019;-73
2022/09/23 07:50:38;;;;;;;8.40;7.60;;;;;;;27.29;40.23;100478.23;106195;1270;138186;-75
2022/09/23 07:53:12;;;;;;;9.50;8.30;;;;;;;27.27;39.69;100473.91;106366;1270;96511;-74
2022/09/23 07:55:51;;;;;;;8.60;7.70;;;;;;;27.44;39.22;100474.63;106440;1270;109988;-74
2022/09/23 07:58:24;;;;;;;8.10;6.90;;;;;;;27.47;38.89;100477.73;106278;1270;138372;-73
2022/09/23 08:01:01;;;;;;;8.20;6.90;;;;;;;27.46;38.47;100478.13;106241;1270;107774;-73
2022/09/23 08:03:33;;;;;;;8.40;7.60;;;;;;;27.25;38.08;100483.97;106332;1269;137549;-74
2022/09/23 08:06:09;;;;;;;7.50;6.80;;;;;;;26.93;37.69;100479.59;106309;1269;96371;-73
2022/09/23 08:08:43;;;;;;;9.60;7.00;;;;;;;26.79;37.90;100474.69;106304;1271;138410;-74
2022/09/23 08:11:15;;;;;;;7.10;6.20;;;;;;;26.86;38.17;100472.98;106350;1270;108256;-74
2022/09/23 08:13:47;;;;;;;7.10;6.30;;;;;;;27.20;38.70;100472.20;106286;1270;108854;-74
2022/09/23 08:16:20;;;;;;;9.20;7.90;;;;;;;27.51;38.11;100473.46;106115;1270;137566;-73
2022/09/23 08:18:52;;;;;;;8.20;7.40;;;;;;;27.57;37.45;100471.77;106257;1270;96593;-73
2022/09/23 08:21:24;;;;;;;7.90;7.00;;;;;;;27.60;36.86;100467.23;106352;1270;138430;-73
2022/09/23 08:23:57;;;;;;;7.50;6.80;;;;;;;27.67;37.12;100464.62;106454;1270;109370;-73
2022/09/23 08:26:33;;;;;;;8.60;7.20;;;;;;;27.98;37.05;100461.64;106149;1270;137709;-73
2022/09/23 08:29:08;;;;;;;8.50;7.40;;;;;;;28.16;36.39;100457.40;106385;1270;96490;-72
2022/09/23 08:31:41;;;;;;;9.70;7.10;;;;;;;28.37;36.38;100455.89;106295;1270;96542;-74
2022/09/23 08:34:13;;;;;;;7.60;6.90;;;;;;;28.55;36.02;100449.91;106294;1270;137984;-73
2022/09/23 08:36:46;;;;;;;6.40;5.80;;;;;;;28.69;35.91;100451.04;106420;1270;108846;-73
2022/09/23 08:39:21;;;;;;;7.30;5.90;;;;;;;28.78;35.30;100449.45;106292;1270;139121;-73
2022/09/23 08:42:07;;;;;;;6.80;5.70;;;;;;;28.74;35.50;100448.19;106395;1270;96470;-72
2022/09/23 08:44:48;;;;;;;6.60;5.50;;;;;;;28.81;35.62;100441.52;106334;1270;138109;-73
2022/09/23 08:47:24;;;;;;;7.40;6.60;;;;;;;29.16;35.64;100444.86;106428;1270;111910;-73
2022/09/23 08:50:02;;;;;;;8.50;6.80;;;;;;;28.71;34.49;100442.06;106425;1270;107787;-73
2022/09/23 08:52:39;;;;;;;6.50;5.90;;;;;;;27.78;34.99;100444.73;106244;1270;138045;-73
2022/09/23 08:55:14;;;;;;;7.60;5.00;;;;;;;27.55;35.76;100441.65;106346;1270;96531;-73
2022/09/23 08:57:58;;;;;;;6.80;5.90;;;;;;;27.89;36.29;100444.91;106293;1270;137249;-73
2022/09/23 09:01:03;;;;;;;6.70;6.00;;;;;;;27.76;35.06;100444.41;106291;1270;110102;-73
2022/09/23 09:03:40;;;;;;;6.20;5.60;;;;;;;27.40;35.66;100442.45;106227;1270;137580;-73
2022/09/23 09:06:18;;;;;;;6.70;4.20;;;;;;;27.39;36.03;100433.06;106400;1270;107804;-73
2022/09/23 09:08:56;;;;;;;6.10;4.40;;;;;;;27.71;35.66;100432.80;106180;1270;138129;-72
2022/09/23 09:11:35;;;;;;;7.10;4.40;;;;;;;27.93;36.07;100426.77;106429;1271;96533;-73
2022/09/23 09:14:17;;;;;;;5.50;4.70;;;;;;;28.28;35.75;100421.59;106358;1270;110160;-72
2022/09/23 09:16:58;;;;;;;4.80;4.20;;;;;;;27.86;34.81;100424.27;106328;1269;110396;-73
2022/09/23 09:19:55;;;;;;;6.70;4.70;;;;;;;26.94;35.10;100434.88;106360;1270;108959;-73
2022/09/23 09:22:49;;;;;;;7.20;5.00;;;;;;;26.01;35.77;100433.95;107771;1270;137528;-73
2022/09/23 09:25:28;;;;;;;5.10;4.10;;;;;;;25.23;36.39;100433.31;107411;1270;96469;-73
2022/09/23 09:28:14;;;;;;;6.70;4.70;;;;;;;24.47;36.98;100430.81;106370;1270;137354;-73
2022/09/23 09:30:52;;;;;;;7.10;3.90;;;;;;;24.34;37.77;100427.89;106284;1270;109009;-73
2022/09/23 09:33:31;;;;;;;4.40;3.90;;;;;;;24.78;38.79;100423.69;106179;1270;137849;-73
2022/09/23 09:36:13;;;;;;;2.70;2.30;;;;;;;25.24;38.72;100422.59;106410;1268;96584;-73
2022/09/23 09:38:45;;;;;;;2.40;2.20;;;;;;;24.86;37.08;100420.81;106294;1269;137650;-72
2022/09/23 09:41:23;;;;;;;1.90;1.40;;;;;;;24.19;36.64;100418.16;106253;1270;110992;-73
2022/09/23 09:43:58;;;;;;;1.80;1.30;;;;;;;24.12;37.02;100422.84;106265;1269;108901;-73
2022/09/23 09:46:46;;;;;;;1.20;1.00;;;;;;;24.43;37.58;100423.16;106237;1270;137510;-74
2022/09/23 09:49:28;;;;;;;0.90;0.70;;;;;;;25.07;37.82;100418.90;106316;1270;96441;-74
2022/09/23 09:52:22;;;;;;;1.00;0.80;;;;;;;25.45;36.75;100409.81;106243;1270;137394;-72
2022/09/23 09:54:59;;;;;;;0.70;0.70;;;;;;;25.59;36.20;100401.38;106448;1270;111129;-73
2022/09/23 09:57:38;;;;;;;0.90;0.80;;;;;;;25.47;35.04;100401.25;106104;1270;137544;-74
2022/09/23 10:00:41;;;;;;;0.90;0.90;;;;;;;24.94;34.22;100401.06;106360;1269;107963;-74
2022/09/23 10:03:30;;;;;;;2.40;1.00;;;;;;;24.53;34.77;100399.93;106257;1261;138467;-72
2022/09/23 10:06:16;;;;;;;0.90;0.80;;;;;;;24.52;34.90;100397.52;106263;1270;96352;-72
2022/09/23 10:09:13;;;;;;;1.30;0.80;;;;;;;24.51;34.74;100396.73;106157;1270;137596;-73
2022/09/23 10:12:10;;;;;;;1.60;0.80;;;;;;;24.54;34.68;100390.98;106425;1270;108957;-73
2022/09/23 10:14:42;;;;;;;0.70;0.70;;;;;;;24.72;34.49;100391.13;106342;1270;137678;-73
2022/09/23 10:17:20;;;;;;;2.00;0.70;;;;;;;24.90;34.24;100380.13;106281;1270;96602;-74
2022/09/23 10:19:59;;;;;;;2.00;1.40;;;;;;;25.06;34.54;100383.27;106690;1270;96479;-74
2022/09/23 10:22:36;;;;;;;2.00;1.20;;;;;;;25.16;34.43;100380.62;106152;1270;137218;-74
2022/09/23 10:25:16;;;;;;;2.30;1.30;;;;;;;25.14;34.50;100378.11;106258;1269;109619;-73
2022/09/23 10:27:48;;;;;;;2.70;0.90;;;;;;;24.71;33.71;100379.50;106126;1269;137552;-74
2022/09/23 10:30:26;;;;;;;2.30;1.20;;;;;;;24.15;33.54;100375.31;106275;1270;96369;-73
2022/09/23 10:32:58;;;;;;;2.20;1.00;;;;;;;23.91;34.83;100375.31;106133;1270;137509;-74
2022/09/23 10:35:32;;;;;;;1.20;0.90;;;;;;;24.16;35.24;100371.52;106280;1270;111078;-76
2022/09/23 10:38:04;;;;;;;0.80;0.70;;;;;;;24.11;34.46;100361.98;106263;1270;109034;-74
2022/09/23 10:46:39;;;;;;;1.30;0.90;;;;;;;23.14;35.33;100364.55;106125;1270;137397;-73
2022/09/23 10:49:55;;;;;;;2.90;0.90;;;;;;;23.20;35.52;100363.84;106302;1270;111291;-74
2022/09/23 10:52:56;;;;;;;6.80;5.30;;;;;;;22.96;35.62;100365.71;106158;1270;137467;-73
2022/09/23 10:55:43;;;;;;;2.70;1.80;;;;;;;23.04;35.98;100363.65;107881;1270;107765;-74
2022/09/23 10:58:32;;;;;;;1.40;0.90;;;;;;;23.12;35.80;100361.20;107706;1270;138030;-73
2022/09/23 11:01:15;;;;;;;2.10;1.20;;;;;;;23.05;35.11;100362.82;106262;1270;96565;-73
2022/09/23 11:04:05;;;;;;;2.20;1.50;;;;;;;22.57;34.91;100368.08;106145;1272;137522;-72
2022/09/23 11:06:52;;;;;;;1.20;1.10;;;;;;;22.23;35.72;100369.91;107807;1272;107819;-73
2022/09/23 11:09:33;;;;;;;1.30;1.20;;;;;;;22.28;35.79;100364.61;107083;1272;138307;-72
2022/09/23 11:12:17;;;;;;;1.20;1.10;;;;;;;22.41;35.86;100361.95;106268;1273;96652;-72
2022/09/23 11:15:17;;;;;;;2.00;1.40;;;;;;;22.62;36.26;100362.23;106136;1273;137795;-72
2022/09/23 11:18:17;;;;;;;2.00;1.10;;;;;;;22.74;35.37;100355.77;106193;1273;111255;-74
2022/09/23 11:20:59;;;;;;;1.90;1.30;;;;;;;22.33;34.43;100359.79;106116;1273;139629;-74
2022/09/23 11:23:47;;;;;;;1.50;1.20;;;;;;;21.84;34.59;100359.15;106112;1272;107891;-73
2022/09/23 11:26:30;;;;;;;2.60;1.50;;;;;;;21.33;34.71;100357.05;106076;1273;139037;-73
2022/09/23 11:29:41;;;;;;;2.00;1.70;;;;;;;20.93;35.21;100355.60;106217;1273;96469;-72
2022/09/23 11:32:34;;;;;;;1.30;0.80;;;;;;;20.83;35.79;100352.79;106064;1273;138670;-73
2022/09/23 11:35:18;;;;;;;1.20;1.00;;;;;;;20.92;36.36;100346.83;106219;1273;108891;-73
2022/09/23 11:37:53;;;;;;;3.40;1.20;;;;;;;20.99;36.29;100347.16;106267;1273;108813;-73
2022/09/23 11:40:32;;;;;;;1.60;1.00;;;;;;;21.08;36.49;100343.31;106133;1273;139096;-73
2022/09/23 11:43:14;;;;;;;2.20;0.90;;;;;;;21.29;36.49;100337.02;106205;1273;96498;-74
2022/09/23 11:45:51;;;;;;;0.90;0.90;;;;;;;21.40;36.02;100336.52;106007;1273;137467;-73
2022/09/23 11:48:30;;;;;;;2.80;1.10;;;;;;;21.52;36.53;100339.69;106194;1273;108814;-74
2022/09/23 11:51:06;;;;;;;1.90;1.10;;;;;;;21.65;36.54;100339.02;106119;1273;138640;-72
2022/09/23 11:53:47;;;;;;;1.80;1.10;;;;;;;21.79;36.75;100336.21;106223;1271;96607;-73
2022/09/23 11:56:26;;;;;;;1.90;1.00;;;;;;;21.79;35.85;100334.05;105945;1273;138020;-73
2022/09/23 11:59:15;;;;;;;3.80;1.30;;;;;;;21.73;35.83;100333.80;106201;1273;110214;-74
2022/09/23 12:01:53;;;;;;;1.80;1.20;;;;;;;21.59;35.69;100334.20;107277;1272;110099;-74
2022/09/23 12:04:33;;;;;;;2.80;1.20;;;;;;;21.27;35.31;100331.33;106129;1273;138284;-73